New Milford, New Jersey
Current Conditions -  °F | °C
As of 3:51 PM on Monday 24 Nov 2014 (Local Time) from KTEB Reporting Station
Few Clouds Few Clouds  
Wind Chill: 70°   Ceiling: Unl
Heat Index: 70°   Visibility: 10mi
Dew Point: 54°   Wind: 18mph
Humidity: 57%   Direction: 200°SSW
Pressure: 29.57"   Gusts: 30mph
Location:  40.92°N, 74.03°W
Report Text: KTEB 242051Z 20016G26KT 10SM FEW040 21/12 A2957 RMK AO2 PK WND 20026/2043 SLP012 T02110122 55005
Loading
Personal Weather Stations






























Interactive Weather Map New forecast layout! Learn more

10-Day Weather Forecast

Advertisements
Track Severe Weather on mobile